createdAt,value
2022-08-25T00:01:39.794Z,101471.25
2022-08-25T00:04:10.945Z,101467.88
2022-08-25T00:06:39.572Z,101472.25
2022-08-25T00:09:11.617Z,101471.47
2022-08-25T00:11:40.350Z,101475.88
2022-08-25T00:14:14.589Z,101470.53
2022-08-25T00:16:41.787Z,101473.31
2022-08-25T00:19:12.567Z,101476.41
2022-08-25T00:21:41.065Z,101472.69
2022-08-25T00:24:10.054Z,101464.09
2022-08-25T00:26:40.559Z,101472.25
2022-08-25T00:29:08.314Z,101473.41
2022-08-25T00:31:38.140Z,101476.81
2022-08-25T00:34:09.533Z,101476.84
2022-08-25T00:36:37.530Z,101475.38
2022-08-25T00:39:10.312Z,101482.53
2022-08-25T00:41:38.418Z,101472.97
2022-08-25T00:44:09.577Z,101475.03
2022-08-25T00:46:40.970Z,101486.59
2022-08-25T00:49:25.399Z,101473.25
2022-08-25T00:51:55.295Z,101481.22
2022-08-25T00:54:34.701Z,101471.31
2022-08-25T00:57:06.242Z,101476.97
2022-08-25T00:59:42.919Z,101467.88
2022-08-25T01:02:13.758Z,101461.91
2022-08-25T01:04:42.853Z,101466.28
2022-08-25T01:07:18.546Z,101464.78
2022-08-25T01:09:47.621Z,101459.78
2022-08-25T01:12:14.561Z,101460.75
2022-08-25T01:14:41.273Z,101465.31
2022-08-25T01:17:09.491Z,101464.78
2022-08-25T01:19:36.144Z,101467.91
2022-08-25T01:22:05.762Z,101465.16
2022-08-25T01:24:53.331Z,101470.34
2022-08-25T01:27:21.129Z,101470.00
2022-08-25T01:29:47.903Z,101473.88
2022-08-25T01:32:14.941Z,101469.94
2022-08-25T01:34:44.037Z,101476.03
2022-08-25T01:37:13.614Z,101474.56
2022-08-25T01:39:41.787Z,101475.34
2022-08-25T01:42:29.742Z,101477.56
2022-08-25T01:44:57.411Z,101471.56
2022-08-25T01:47:24.405Z,101486.44
2022-08-25T01:49:51.060Z,101479.75
2022-08-25T01:52:29.044Z,101479.56
2022-08-25T01:54:55.707Z,101472.94
2022-08-25T01:57:25.393Z,101481.53
2022-08-25T01:59:51.886Z,101477.75
2022-08-25T02:02:44.793Z,101477.38
2022-08-25T02:05:14.085Z,101465.47
2022-08-25T02:07:42.435Z,101470.19
2022-08-25T02:10:11.591Z,101467.06
2022-08-25T02:12:38.509Z,101463.34
2022-08-25T02:15:08.918Z,101463.06
2022-08-25T02:17:37.351Z,101473.31
2022-08-25T02:20:09.563Z,101470.50
2022-08-25T02:22:36.191Z,101466.56
2022-08-25T02:25:05.896Z,101471.91
2022-08-25T02:27:33.341Z,101467.19
2022-08-25T02:29:59.909Z,101473.31
2022-08-25T02:32:26.397Z,101469.31
2022-08-25T02:34:53.046Z,101466.88
2022-08-25T02:37:21.224Z,101463.44
2022-08-25T02:39:47.906Z,101460.69
2022-08-25T02:42:14.631Z,101460.69
2022-08-25T02:44:41.200Z,101460.34
2022-08-25T02:47:11.585Z,101465.78
2022-08-25T02:49:38.614Z,101458.53
2022-08-25T02:52:05.327Z,101462.75
2022-08-25T02:54:41.937Z,101454.31
2022-08-25T02:57:10.490Z,101455.31
2022-08-25T02:59:37.437Z,101456.63
2022-08-25T03:02:07.511Z,101460.50
2022-08-25T03:04:37.507Z,101458.88
2022-08-25T03:07:05.949Z,101457.34
2022-08-25T03:09:34.246Z,101459.47
2022-08-25T03:12:04.225Z,101448.38
2022-08-25T03:14:32.371Z,101453.81
2022-08-25T03:16:58.914Z,101448.44
2022-08-25T03:19:25.417Z,101450.53
2022-08-25T03:21:52.550Z,101445.22
2022-08-25T03:24:26.950Z,101456.25
2022-08-25T03:26:55.884Z,101463.06
2022-08-25T03:29:47.005Z,101459.59
2022-08-25T03:32:13.564Z,101460.19
2022-08-25T03:34:40.057Z,101460.50
2022-08-25T03:37:08.510Z,101462.03
2022-08-25T03:39:38.802Z,101453.88
2022-08-25T03:42:05.923Z,101457.38
2022-08-25T03:44:33.577Z,101454.50
2022-08-25T03:47:00.087Z,101460.75
2022-08-25T03:49:26.517Z,101456.94
2022-08-25T03:51:54.763Z,101463.91
2022-08-25T03:54:24.213Z,101456.56
2022-08-25T03:56:50.799Z,101461.44
2022-08-25T03:59:19.034Z,101456.38
2022-08-25T04:01:48.373Z,101465.94
2022-08-25T04:04:16.937Z,101461.44
2022-08-25T04:06:44.231Z,101461.81
2022-08-25T04:09:12.476Z,101465.44
2022-08-25T04:11:40.896Z,101460.97
2022-08-25T04:14:09.645Z,101453.03
2022-08-25T04:16:42.609Z,101455.28
2022-08-25T04:19:10.187Z,101453.44
2022-08-25T04:21:38.891Z,101459.56
2022-08-25T04:24:07.533Z,101455.06
2022-08-25T04:26:47.769Z,101448.34
2022-08-25T04:29:17.039Z,101445.28
2022-08-25T04:31:46.926Z,101447.97
2022-08-25T04:34:30.108Z,101451.53
2022-08-25T04:37:05.972Z,101447.22
2022-08-25T04:39:33.223Z,101450.50
2022-08-25T04:42:01.509Z,101446.09
2022-08-25T04:44:31.423Z,101446.53
2022-08-25T04:46:59.051Z,101449.59
2022-08-25T04:49:25.713Z,101438.69
2022-08-25T04:51:52.370Z,101449.88
2022-08-25T04:54:23.052Z,101438.28
2022-08-25T04:56:54.487Z,101445.69
2022-08-25T04:59:28.983Z,101449.28
2022-08-25T05:02:03.509Z,101452.63
2022-08-25T05:04:31.283Z,101459.56
2022-08-25T05:06:58.901Z,101452.72
2022-08-25T05:09:26.167Z,101449.16
2022-08-25T05:11:53.578Z,101456.63
2022-08-25T05:14:26.853Z,101455.88
2022-08-25T05:16:54.786Z,101453.88
2022-08-25T05:19:22.374Z,101453.94
2022-08-25T05:21:48.969Z,101458.13
2022-08-25T05:24:15.525Z,101454.66
2022-08-25T05:26:43.359Z,101460.25
2022-08-25T05:29:10.900Z,101456.19
2022-08-25T05:31:42.299Z,101454.63
2022-08-25T05:34:12.054Z,101445.75
2022-08-25T05:36:43.070Z,101447.69
2022-08-25T05:39:10.545Z,101448.38
2022-08-25T05:41:37.771Z,101441.59
2022-08-25T05:44:05.973Z,101442.91
2022-08-25T05:46:33.463Z,101445.56
2022-08-25T05:49:00.233Z,101432.66
2022-08-25T05:51:27.931Z,101438.91
2022-08-25T05:53:54.628Z,101437.16
2022-08-25T05:56:21.453Z,101430.81
2022-08-25T05:58:48.465Z,101431.44
2022-08-25T06:01:45.237Z,101435.53
2022-08-25T06:04:13.651Z,101427.63
2022-08-25T06:06:40.740Z,101428.88
2022-08-25T06:09:08.807Z,101429.81
2022-08-25T06:11:40.267Z,101440.59
2022-08-25T06:14:08.753Z,101435.56
2022-08-25T06:16:35.402Z,101432.53
2022-08-25T06:19:12.017Z,101438.44
2022-08-25T06:21:41.630Z,101441.19
2022-08-25T06:24:15.177Z,101444.16
2022-08-25T06:26:42.147Z,101444.66
2022-08-25T06:29:08.948Z,101441.25
2022-08-25T06:31:35.497Z,101432.69
2022-08-25T06:34:03.591Z,101440.22
2022-08-25T06:36:30.146Z,101433.91
2022-08-25T06:38:56.645Z,101435.19
2022-08-25T06:41:23.174Z,101419.16
2022-08-25T06:43:54.170Z,101425.47
2022-08-25T06:46:36.540Z,101422.38
2022-08-25T06:49:08.110Z,101412.50
2022-08-25T06:51:38.654Z,101416.91
2022-08-25T06:54:06.941Z,101424.22
2022-08-25T06:56:35.085Z,101426.47
2022-08-25T06:59:06.365Z,101433.28
2022-08-25T07:01:36.885Z,101424.19
2022-08-25T07:04:10.434Z,101419.78
2022-08-25T07:06:39.937Z,101420.94
2022-08-25T07:09:08.930Z,101421.88
2022-08-25T07:11:35.503Z,101412.47
2022-08-25T07:14:04.810Z,101422.69
2022-08-25T07:16:33.515Z,101418.88
2022-08-25T07:19:01.595Z,101416.72
2022-08-25T07:21:33.372Z,101413.75
2022-08-25T07:24:02.292Z,101411.22
2022-08-25T07:26:39.020Z,101410.53
2022-08-25T07:29:33.974Z,101403.91
2022-08-25T07:32:02.693Z,101413.28
2022-08-25T07:34:52.512Z,101419.72
2022-08-25T07:37:38.371Z,101429.47
2022-08-25T07:40:08.935Z,101436.00
2022-08-25T07:42:36.348Z,101428.66
2022-08-25T07:45:07.331Z,101428.19
2022-08-25T07:48:09.230Z,101433.19
2022-08-25T07:50:42.359Z,101424.44
2022-08-25T07:53:10.027Z,101436.91
2022-08-25T07:55:37.515Z,101435.13
2022-08-25T07:58:10.091Z,101438.41
2022-08-25T08:00:40.504Z,101439.84
2022-08-25T08:03:50.099Z,101427.50
2022-08-25T08:06:20.140Z,101421.63
2022-08-25T08:08:49.319Z,101417.59
2022-08-25T08:11:26.592Z,101426.59
2022-08-25T08:13:55.503Z,101414.69
2022-08-25T08:16:24.509Z,101407.19
2022-08-25T08:18:51.229Z,101412.72
2022-08-25T08:21:21.721Z,101422.31
2022-08-25T08:23:49.402Z,101415.50
2022-08-25T08:26:17.151Z,101411.31
2022-08-25T08:28:43.867Z,101407.19
2022-08-25T08:31:10.893Z,101412.91
2022-08-25T08:33:40.619Z,101407.19
2022-08-25T08:36:11.715Z,101407.72
2022-08-25T08:38:41.997Z,101410.94
2022-08-25T08:42:00.668Z,101407.19
2022-08-25T08:45:04.130Z,101392.13
2022-08-25T08:47:52.768Z,101397.31
2022-08-25T08:50:33.245Z,101392.50
2022-08-25T08:53:09.222Z,101393.53
2022-08-25T08:55:40.335Z,101392.25
2022-08-25T08:58:16.111Z,101389.56
2022-08-25T09:00:52.212Z,101388.91
2022-08-25T09:03:34.110Z,101388.16
2022-08-25T09:06:06.934Z,101385.22
2022-08-25T09:08:33.763Z,101384.91
2022-08-25T09:11:10.218Z,101383.09
2022-08-25T09:13:46.075Z,101379.16
2022-08-25T09:16:36.983Z,101376.28
2022-08-25T09:19:31.391Z,101378.94
2022-08-25T09:22:35.412Z,101370.44
2022-08-25T09:25:48.761Z,101369.81
2022-08-25T09:28:21.296Z,101362.06
2022-08-25T09:30:57.319Z,101366.34
2022-08-25T09:33:25.879Z,101363.25
2022-08-25T09:35:54.335Z,101360.13
2022-08-25T09:38:24.902Z,101358.06
2022-08-25T09:40:55.598Z,101352.28
2022-08-25T09:43:22.284Z,101350.94
2022-08-25T09:45:57.951Z,101357.34
2022-08-25T09:48:29.747Z,101342.75
2022-08-25T09:51:10.169Z,101342.25
2022-08-25T09:53:42.439Z,101344.97
2022-08-25T09:56:10.013Z,101347.06
2022-08-25T09:58:38.103Z,101333.13
2022-08-25T10:01:20.765Z,101338.72
2022-08-25T10:04:03.049Z,101335.09
2022-08-25T10:06:56.339Z,101328.22
2022-08-25T10:09:55.533Z,101322.00
2022-08-25T10:15:38.772Z,101317.66
2022-08-25T10:18:26.854Z,101320.31
2022-08-25T10:21:07.824Z,101311.94
2022-08-25T10:23:37.409Z,101306.88
2022-08-25T10:26:11.673Z,101300.34
2022-08-25T10:28:52.281Z,101306.16
2022-08-25T10:31:33.038Z,101299.69
2022-08-25T10:34:28.779Z,101288.75
2022-08-25T10:37:34.717Z,101281.75
2022-08-25T10:40:21.798Z,101271.41
2022-08-25T10:43:11.049Z,101269.81
2022-08-25T10:45:48.956Z,101270.13
2022-08-25T10:48:31.964Z,101257.41
2022-08-25T10:51:20.557Z,101257.47
2022-08-25T10:54:13.347Z,101261.16
2022-08-25T10:57:36.300Z,101255.03
2022-08-25T11:00:13.430Z,101245.69
2022-08-25T11:02:59.061Z,101240.44
2022-08-25T11:05:43.650Z,101230.50
2022-08-25T11:08:16.918Z,101226.91
2022-08-25T11:11:03.695Z,101228.38
2022-08-25T11:13:46.339Z,101227.91
2022-08-25T11:16:22.466Z,101223.81
2022-08-25T11:19:13.821Z,101227.09
2022-08-25T11:21:54.078Z,101216.53
2022-08-25T11:24:36.106Z,101209.59
2022-08-25T11:27:06.655Z,101210.63
2022-08-25T11:29:38.017Z,101214.28
2022-08-25T11:32:09.463Z,101209.06
2022-08-25T11:34:43.557Z,101207.94
2022-08-25T11:37:25.733Z,101204.34
2022-08-25T11:40:30.943Z,101201.03
2022-08-25T11:43:14.211Z,101199.41
2022-08-25T11:45:59.110Z,101190.91
2022-08-25T11:49:07.216Z,101186.41
2022-08-25T11:51:41.858Z,101188.13
2022-08-25T11:54:21.417Z,101183.19
2022-08-25T11:56:54.699Z,101177.53
2022-08-25T11:59:49.696Z,101185.91
2022-08-25T12:02:48.874Z,101178.44
2022-08-25T12:05:22.018Z,101187.97
2022-08-25T12:08:13.559Z,101181.63
2022-08-25T12:10:59.065Z,101183.19
2022-08-25T12:13:51.171Z,101179.19
2022-08-25T12:16:35.851Z,101171.88
2022-08-25T12:19:23.495Z,101165.91
2022-08-25T12:21:51.338Z,101161.53
2022-08-25T12:24:47.790Z,101155.13
2022-08-25T12:28:05.100Z,101154.41
2022-08-25T12:30:47.244Z,101148.78
2022-08-25T12:33:44.411Z,101147.19
2022-08-25T12:36:25.216Z,101139.97
2022-08-25T12:38:53.604Z,101150.00
2022-08-25T12:41:26.124Z,101137.13
2022-08-25T12:44:09.684Z,101136.75
2022-08-25T12:46:39.415Z,101131.16
2022-08-25T12:49:11.707Z,101145.53
2022-08-25T12:51:50.711Z,101132.22
2022-08-25T12:54:35.813Z,101132.94
2022-08-25T12:57:24.963Z,101132.56
2022-08-25T12:59:56.439Z,101119.34
2022-08-25T13:03:00.000Z,101130.16
2022-08-25T13:06:14.813Z,101123.88
2022-08-25T13:09:19.620Z,101115.31
2022-08-25T13:12:26.902Z,101115.81
2022-08-25T13:14:56.971Z,101111.47
2022-08-25T13:17:41.633Z,101111.00
2022-08-25T13:20:23.247Z,101110.75
2022-08-25T13:22:57.402Z,101109.13
2022-08-25T13:25:32.014Z,101100.53
2022-08-25T13:28:03.118Z,101094.97
2022-08-25T13:30:39.421Z,101104.59
2022-08-25T13:33:22.614Z,101111.00
2022-08-25T13:36:17.021Z,101090.97
2022-08-25T13:38:45.922Z,101102.16
2022-08-25T13:41:20.255Z,101082.59
2022-08-25T13:43:47.415Z,101093.81
2022-08-25T13:46:20.348Z,101089.09
2022-08-25T13:48:49.652Z,101090.28
2022-08-25T13:51:22.603Z,101092.31
2022-08-25T13:54:20.337Z,101081.84
2022-08-25T13:56:47.126Z,101086.25
2022-08-25T13:59:29.911Z,101080.69
2022-08-25T14:02:00.003Z,101081.50
2022-08-25T14:04:50.746Z,101076.72
2022-08-25T14:07:21.699Z,101070.31
2022-08-25T14:09:57.053Z,101067.88
2022-08-25T14:12:33.995Z,101068.69
2022-08-25T14:15:12.255Z,101057.09
2022-08-25T14:17:41.144Z,101055.88
2022-08-25T14:20:32.080Z,101045.06
2022-08-25T14:23:18.879Z,101043.88
2022-08-25T14:25:47.205Z,101051.81
2022-08-25T14:28:17.532Z,101045.41
2022-08-25T14:30:54.259Z,101038.16
2022-08-25T14:33:26.742Z,101037.41
2022-08-25T14:35:55.467Z,101030.56
2022-08-25T14:38:22.911Z,101031.75
2022-08-25T14:40:50.215Z,101024.84
2022-08-25T14:43:17.813Z,101012.28
2022-08-25T14:45:49.064Z,101019.00
2022-08-25T14:48:24.810Z,101021.44
2022-08-25T14:50:53.099Z,101023.41
2022-08-25T14:53:20.344Z,101014.56
2022-08-25T14:55:46.883Z,101011.22
2022-08-25T14:58:13.778Z,101007.16
2022-08-25T15:00:43.307Z,101016.75
2022-08-25T15:03:16.661Z,100995.34
2022-08-25T15:05:46.691Z,100994.81
2022-08-25T15:08:33.494Z,100993.66
2022-08-25T15:11:00.734Z,101001.84
2022-08-25T15:13:27.541Z,101002.28
2022-08-25T15:15:55.535Z,100993.06
2022-08-25T15:18:27.864Z,100987.41
2022-08-25T15:20:54.467Z,100983.78
2022-08-25T15:23:21.651Z,100980.19
2022-08-25T15:25:52.824Z,100987.13
2022-08-25T15:28:22.354Z,100982.69
2022-08-25T15:30:49.785Z,100979.06
2022-08-25T15:33:17.283Z,100983.41
2022-08-25T15:35:43.871Z,100981.81
2022-08-25T15:38:11.929Z,100979.03
2022-08-25T15:40:42.638Z,100978.22
2022-08-25T15:43:12.873Z,100979.31
2022-08-25T15:45:39.671Z,100976.59
2022-08-25T15:48:09.713Z,100975.44
2022-08-25T15:50:37.356Z,100965.38
2022-08-25T15:53:06.083Z,100963.38
2022-08-25T15:55:39.413Z,100962.22
2022-08-25T15:58:08.766Z,100961.47
2022-08-25T16:00:39.212Z,100961.69
2022-08-25T16:03:09.598Z,100964.41
2022-08-25T16:05:38.315Z,100958.00
2022-08-25T16:08:05.978Z,100954.91
2022-08-25T16:10:43.428Z,100950.25
2022-08-25T16:13:11.138Z,100949.91
2022-08-25T16:15:38.535Z,100952.38
2022-08-25T16:18:07.879Z,100946.03
2022-08-25T16:20:36.869Z,100946.09
2022-08-25T16:23:05.524Z,100955.38
2022-08-25T16:25:33.274Z,100950.56
2022-08-25T16:28:03.385Z,100944.59
2022-08-25T16:30:30.446Z,100949.78
2022-08-25T16:32:56.881Z,100939.38
2022-08-25T16:35:23.561Z,100945.34
2022-08-25T16:37:50.031Z,100945.75
2022-08-25T16:40:18.876Z,100937.75
2022-08-25T16:42:46.662Z,100932.97
2022-08-25T16:45:13.772Z,100933.38
2022-08-25T16:47:42.709Z,100934.19
2022-08-25T16:50:10.913Z,100926.59
2022-08-25T16:52:56.655Z,100927.78
2022-08-25T16:55:25.518Z,100925.38
2022-08-25T16:57:54.288Z,100928.97
2022-08-25T17:00:24.887Z,100928.59
2022-08-25T17:02:59.506Z,100924.63
2022-08-25T17:05:29.125Z,100929.81
2022-08-25T17:08:15.104Z,100925.81
2022-08-25T17:10:43.473Z,100928.59
2022-08-25T17:13:12.761Z,100919.78
2022-08-25T17:15:42.872Z,100931.78
2022-08-25T17:18:11.088Z,100935.38
2022-08-25T17:20:38.432Z,100940.56
2022-08-25T17:23:12.162Z,100934.16
2022-08-25T17:25:43.157Z,100943.34
2022-08-25T17:28:12.008Z,100939.72
2022-08-25T17:30:39.425Z,100940.13
2022-08-25T17:33:07.011Z,100942.91
2022-08-25T17:35:42.837Z,100938.50
2022-08-25T17:38:10.191Z,100930.06
2022-08-25T17:40:37.557Z,100946.00
2022-08-25T17:43:04.497Z,100940.78
2022-08-25T17:45:36.212Z,100943.19
2022-08-25T17:48:04.401Z,100939.94
2022-08-25T17:50:32.026Z,100935.56
2022-08-25T17:53:00.790Z,100932.69
2022-08-25T17:55:27.395Z,100945.81
2022-08-25T17:57:54.090Z,100932.94
2022-08-25T18:00:21.766Z,100939.34
2022-08-25T18:02:48.738Z,100943.25
2022-08-25T18:05:16.719Z,100944.44
2022-08-25T18:07:44.065Z,100945.59
2022-08-25T18:10:13.712Z,100942.00
2022-08-25T18:12:40.249Z,100944.75
2022-08-25T18:15:10.918Z,100947.13
2022-08-25T18:17:42.379Z,100943.88
2022-08-25T18:20:13.706Z,100943.78
2022-08-25T18:22:41.820Z,100949.25
2022-08-25T18:25:13.821Z,100953.53
2022-08-25T18:27:40.681Z,100952.41
2022-08-25T18:30:08.866Z,100952.34
2022-08-25T18:32:36.547Z,100947.75
2022-08-25T18:35:05.359Z,100950.53
2022-08-25T18:37:51.214Z,100957.25
2022-08-25T18:40:23.696Z,100959.16
2022-08-25T18:42:53.948Z,100955.94
2022-08-25T18:45:24.673Z,100951.97
2022-08-25T18:47:57.393Z,100960.69
2022-08-25T18:50:29.612Z,100959.31
2022-08-25T18:52:56.709Z,100955.66
2022-08-25T18:55:26.297Z,100961.75
2022-08-25T18:57:53.014Z,100962.75
2022-08-25T19:00:23.971Z,100969.00
2022-08-25T19:02:52.811Z,100962.00
2022-08-25T19:05:27.254Z,100959.50
2022-08-25T19:07:55.151Z,100960.97
2022-08-25T19:10:24.101Z,100968.09
2022-08-25T19:12:52.111Z,100968.84
2022-08-25T19:15:18.722Z,100967.94
2022-08-25T19:17:53.084Z,100962.13
2022-08-25T19:20:21.957Z,100970.72
2022-08-25T19:22:49.286Z,100960.69
2022-08-25T19:25:15.924Z,100963.38
2022-08-25T19:27:43.445Z,100958.09
2022-08-25T19:30:12.821Z,100968.28
2022-08-25T19:32:42.400Z,100962.69
2022-08-25T19:35:12.385Z,100970.03
2022-08-25T19:37:39.901Z,100964.88
2022-08-25T19:40:08.292Z,100972.59
2022-08-25T19:42:38.248Z,100967.22
2022-08-25T19:45:10.151Z,100965.94
2022-08-25T19:47:37.639Z,100970.59
2022-08-25T19:50:06.530Z,100965.41
2022-08-25T19:52:34.469Z,100968.09
2022-08-25T19:55:03.401Z,100974.81
2022-08-25T19:57:42.907Z,100972.66
2022-08-25T20:00:15.578Z,100973.50
2022-08-25T20:02:42.927Z,100978.97
2022-08-25T20:05:13.273Z,100978.53
2022-08-25T20:07:41.051Z,100986.28
2022-08-25T20:10:14.211Z,100985.44
2022-08-25T20:12:41.893Z,100985.28
2022-08-25T20:15:09.961Z,100980.03
2022-08-25T20:17:37.154Z,100984.72
2022-08-25T20:20:11.519Z,100987.09
2022-08-25T20:22:38.757Z,100982.00
2022-08-25T20:25:13.512Z,100982.19
2022-08-25T20:27:53.562Z,100986.50
2022-08-25T20:30:27.517Z,100981.72
2022-08-25T20:32:55.897Z,100980.06
2022-08-25T20:35:26.426Z,100985.19
2022-08-25T20:37:55.305Z,100979.56
2022-08-25T20:40:25.563Z,100978.31
2022-08-25T20:42:53.008Z,100989.38
2022-08-25T20:45:23.578Z,100984.56
2022-08-25T20:47:51.063Z,100982.50
2022-08-25T20:50:19.692Z,100995.16
2022-08-25T20:52:48.536Z,100992.28
2022-08-25T20:55:15.231Z,100992.28
2022-08-25T20:57:46.203Z,100997.00
2022-08-25T21:00:13.029Z,100999.34
2022-08-25T21:02:39.998Z,100990.53
2022-08-25T21:05:08.732Z,100989.75
2022-08-25T21:07:36.246Z,100993.31
2022-08-25T21:10:07.285Z,101000.63
2022-08-25T21:12:38.676Z,100995.75
2022-08-25T21:15:13.534Z,100999.47
2022-08-25T21:17:54.527Z,100999.56
2022-08-25T21:20:25.251Z,100996.66
2022-08-25T21:22:52.341Z,100996.72
2022-08-25T21:25:21.813Z,100989.03
2022-08-25T21:27:49.315Z,100986.34
2022-08-25T21:30:16.140Z,100991.63
2022-08-25T21:32:53.225Z,100987.09
2022-08-25T21:35:23.050Z,100989.34
2022-08-25T21:37:53.065Z,100983.19
2022-08-25T21:40:24.221Z,100986.03
2022-08-25T21:42:52.253Z,100988.38
2022-08-25T21:45:21.033Z,100989.97
2022-08-25T21:47:48.499Z,100987.63
2022-08-25T21:50:15.227Z,100980.56
2022-08-25T21:52:42.248Z,100986.56
2022-08-25T21:55:16.024Z,100985.72
2022-08-25T21:57:43.889Z,100987.41
2022-08-25T22:00:11.529Z,100985.28
2022-08-25T22:02:38.754Z,100978.84
2022-08-25T22:05:09.297Z,100981.00
2022-08-25T22:07:42.076Z,100983.94
2022-08-25T22:10:15.869Z,100979.75
2022-08-25T22:12:47.591Z,100971.41
2022-08-25T22:15:16.396Z,100979.50
2022-08-25T22:17:48.097Z,100977.44
2022-08-25T22:20:17.527Z,100978.09
2022-08-25T22:22:43.997Z,100966.63
2022-08-25T22:25:11.322Z,100967.69
2022-08-25T22:27:38.646Z,100972.34
2022-08-25T22:30:06.363Z,100965.13
2022-08-25T22:32:40.934Z,100968.22
2022-08-25T22:35:08.552Z,100966.25
2022-08-25T22:37:36.463Z,100973.31
2022-08-25T22:40:05.199Z,100965.63
2022-08-25T22:42:32.813Z,100970.66
2022-08-25T22:44:59.884Z,100968.25
2022-08-25T22:47:26.654Z,100965.81
2022-08-25T22:49:53.362Z,100967.78
2022-08-25T22:52:21.823Z,100965.28
2022-08-25T22:55:00.414Z,100963.41
2022-08-25T22:57:27.454Z,100959.66
2022-08-25T22:59:56.491Z,100960.38
2022-08-25T23:02:23.293Z,100955.97
2022-08-25T23:04:49.904Z,100955.09
2022-08-25T23:07:16.369Z,100961.00
2022-08-25T23:09:44.021Z,100970.94
2022-08-25T23:12:11.426Z,100962.50
2022-08-25T23:14:42.292Z,100960.09
2022-08-25T23:17:10.944Z,100956.00
2022-08-25T23:19:37.601Z,100956.88
2022-08-25T23:22:10.964Z,100952.75
2022-08-25T23:24:44.079Z,100950.16
2022-08-25T23:27:35.999Z,100958.75
2022-08-25T23:30:03.620Z,100957.16
2022-08-25T23:32:30.102Z,100955.81
2022-08-25T23:34:56.535Z,100954.84
2022-08-25T23:37:23.131Z,100957.44
2022-08-25T23:39:50.169Z,100951.28
2022-08-25T23:42:17.331Z,100950.97
2022-08-25T23:44:46.794Z,100950.97
2022-08-25T23:47:13.306Z,100944.19
2022-08-25T23:49:40.325Z,100946.28
2022-08-25T23:52:07.438Z,100949.59
2022-08-25T23:54:38.085Z,100946.50
2022-08-25T23:57:06.776Z,100942.13
2022-08-25T23:59:34.047Z,100940.22
